sensor_id;sensor_type;location;lat;lon;timestamp;temperature;humidity
43999;DHT22;51319;52.162;5.302;2023-03-16T00:00:18;5.50;67.10
43999;DHT22;51319;52.162;5.302;2023-03-16T00:02:45;5.50;67.30
43999;DHT22;51319;52.162;5.302;2023-03-16T00:05:13;5.60;67.50
43999;DHT22;51319;52.162;5.302;2023-03-16T00:07:40;5.60;67.70
43999;DHT22;51319;52.162;5.302;2023-03-16T00:10:09;5.60;67.70
43999;DHT22;51319;52.162;5.302;2023-03-16T00:12:38;5.60;67.80
43999;DHT22;51319;52.162;5.302;2023-03-16T00:15:05;5.60;68.00
43999;DHT22;51319;52.162;5.302;2023-03-16T00:17:32;5.60;68.00
43999;DHT22;51319;52.162;5.302;2023-03-16T00:20:00;5.60;68.20
43999;DHT22;51319;52.162;5.302;2023-03-16T00:22:32;5.60;68.40
43999;DHT22;51319;52.162;5.302;2023-03-16T00:24:59;5.60;68.40
43999;DHT22;51319;52.162;5.302;2023-03-16T00:27:26;5.60;69.20
43999;DHT22;51319;52.162;5.302;2023-03-16T00:29:53;5.60;68.90
43999;DHT22;51319;52.162;5.302;2023-03-16T00:32:35;5.50;69.10
43999;DHT22;51319;52.162;5.302;2023-03-16T00:35:03;5.50;69.20
43999;DHT22;51319;52.162;5.302;2023-03-16T00:37:34;5.50;69.30
43999;DHT22;51319;52.162;5.302;2023-03-16T00:40:03;5.50;69.70
43999;DHT22;51319;52.162;5.302;2023-03-16T00:42:33;5.50;69.90
43999;DHT22;51319;52.162;5.302;2023-03-16T00:45:00;5.50;70.00
43999;DHT22;51319;52.162;5.302;2023-03-16T00:47:30;5.50;70.00
43999;DHT22;51319;52.162;5.302;2023-03-16T00:49:58;5.50;70.10
43999;DHT22;51319;52.162;5.302;2023-03-16T00:52:26;5.50;70.30
43999;DHT22;51319;52.162;5.302;2023-03-16T00:54:54;5.50;70.70
43999;DHT22;51319;52.162;5.302;2023-03-16T00:57:23;5.50;70.80
43999;DHT22;51319;52.162;5.302;2023-03-16T00:59:50;5.50;70.70
43999;DHT22;51319;52.162;5.302;2023-03-16T01:02:18;5.60;70.90
43999;DHT22;51319;52.162;5.302;2023-03-16T01:04:50;5.60;71.20
43999;DHT22;51319;52.162;5.302;2023-03-16T01:07:17;5.50;71.20
43999;DHT22;51319;52.162;5.302;2023-03-16T01:09:44;5.60;71.40
43999;DHT22;51319;52.162;5.302;2023-03-16T01:12:14;5.50;71.50
43999;DHT22;51319;52.162;5.302;2023-03-16T01:14:42;5.50;71.70
43999;DHT22;51319;52.162;5.302;2023-03-16T01:17:12;5.60;71.80
43999;DHT22;51319;52.162;5.302;2023-03-16T01:19:40;5.60;71.90
43999;DHT22;51319;52.162;5.302;2023-03-16T01:22:08;5.50;72.00
43999;DHT22;51319;52.162;5.302;2023-03-16T01:24:36;5.60;72.50
43999;DHT22;51319;52.162;5.302;2023-03-16T01:27:03;5.60;73.10
43999;DHT22;51319;52.162;5.302;2023-03-16T01:29:31;5.60;72.50
43999;DHT22;51319;52.162;5.302;2023-03-16T01:31:59;5.60;72.60
43999;DHT22;51319;52.162;5.302;2023-03-16T01:34:27;5.50;72.60
43999;DHT22;51319;52.162;5.302;2023-03-16T01:36:54;5.60;72.90
43999;DHT22;51319;52.162;5.302;2023-03-16T01:39:21;5.60;72.90
43999;DHT22;51319;52.162;5.302;2023-03-16T01:41:49;5.50;73.10
43999;DHT22;51319;52.162;5.302;2023-03-16T01:44:21;5.60;73.00
43999;DHT22;51319;52.162;5.302;2023-03-16T01:46:50;5.60;73.10
43999;DHT22;51319;52.162;5.302;2023-03-16T01:49:41;5.50;73.20
43999;DHT22;51319;52.162;5.302;2023-03-16T01:52:17;5.60;73.50
43999;DHT22;51319;52.162;5.302;2023-03-16T01:54:51;5.60;73.50
43999;DHT22;51319;52.162;5.302;2023-03-16T01:57:20;5.60;73.70
43999;DHT22;51319;52.162;5.302;2023-03-16T02:00:07;5.50;73.70
43999;DHT22;51319;52.162;5.302;2023-03-16T02:02:48;5.50;73.90
43999;DHT22;51319;52.162;5.302;2023-03-16T02:05:21;5.60;74.10
43999;DHT22;51319;52.162;5.302;2023-03-16T02:07:51;5.60;74.30
43999;DHT22;51319;52.162;5.302;2023-03-16T02:10:26;5.50;74.20
43999;DHT22;51319;52.162;5.302;2023-03-16T02:12:54;5.50;74.40
43999;DHT22;51319;52.162;5.302;2023-03-16T02:15:24;5.50;74.50
43999;DHT22;51319;52.162;5.302;2023-03-16T02:17:51;5.60;74.90
43999;DHT22;51319;52.162;5.302;2023-03-16T02:20:35;5.60;74.90
43999;DHT22;51319;52.162;5.302;2023-03-16T02:23:06;5.60;75.00
43999;DHT22;51319;52.162;5.302;2023-03-16T02:26:18;5.60;75.00
43999;DHT22;51319;52.162;5.302;2023-03-16T02:28:33;5.60;75.20
43999;DHT22;51319;52.162;5.302;2023-03-16T02:31:04;5.60;75.40
43999;DHT22;51319;52.162;5.302;2023-03-16T02:33:31;5.60;75.50
43999;DHT22;51319;52.162;5.302;2023-03-16T02:35:59;5.60;75.70
43999;DHT22;51319;52.162;5.302;2023-03-16T02:38:27;5.60;75.80
43999;DHT22;51319;52.162;5.302;2023-03-16T02:41:00;5.60;76.00
43999;DHT22;51319;52.162;5.302;2023-03-16T02:43:33;5.60;76.30
43999;DHT22;51319;52.162;5.302;2023-03-16T02:46:02;5.60;76.40
43999;DHT22;51319;52.162;5.302;2023-03-16T02:48:44;5.60;76.60
43999;DHT22;51319;52.162;5.302;2023-03-16T02:51:13;5.60;76.80
43999;DHT22;51319;52.162;5.302;2023-03-16T02:53:40;5.60;76.90
43999;DHT22;51319;52.162;5.302;2023-03-16T02:56:07;5.60;77.20
43999;DHT22;51319;52.162;5.302;2023-03-16T02:58:34;5.60;78.00
43999;DHT22;51319;52.162;5.302;2023-03-16T03:01:01;5.60;77.60
43999;DHT22;51319;52.162;5.302;2023-03-16T03:03:28;5.60;77.80
43999;DHT22;51319;52.162;5.302;2023-03-16T03:05:55;5.50;77.80
43999;DHT22;51319;52.162;5.302;2023-03-16T03:08:22;5.50;78.10
43999;DHT22;51319;52.162;5.302;2023-03-16T03:10:49;5.50;78.30
43999;DHT22;51319;52.162;5.302;2023-03-16T03:13:17;5.50;78.60
43999;DHT22;51319;52.162;5.302;2023-03-16T03:15:43;5.50;78.60
43999;DHT22;51319;52.162;5.302;2023-03-16T03:18:11;5.50;78.90
43999;DHT22;51319;52.162;5.302;2023-03-16T03:20:38;5.50;79.10
43999;DHT22;51319;52.162;5.302;2023-03-16T03:23:05;5.50;79.40
43999;DHT22;51319;52.162;5.302;2023-03-16T03:25:32;5.50;79.70
43999;DHT22;51319;52.162;5.302;2023-03-16T03:28:02;5.50;80.00
43999;DHT22;51319;52.162;5.302;2023-03-16T03:30:31;5.40;80.30
43999;DHT22;51319;52.162;5.302;2023-03-16T03:32:59;5.40;80.60
43999;DHT22;51319;52.162;5.302;2023-03-16T03:35:27;5.30;80.90
43999;DHT22;51319;52.162;5.302;2023-03-16T03:37:54;5.30;81.40
43999;DHT22;51319;52.162;5.302;2023-03-16T03:40:20;5.30;81.70
43999;DHT22;51319;52.162;5.302;2023-03-16T03:42:48;5.30;81.90
43999;DHT22;51319;52.162;5.302;2023-03-16T03:45:16;5.30;82.50
43999;DHT22;51319;52.162;5.302;2023-03-16T03:47:44;5.20;82.90
43999;DHT22;51319;52.162;5.302;2023-03-16T03:50:11;5.20;83.30
43999;DHT22;51319;52.162;5.302;2023-03-16T03:52:39;5.20;83.70
43999;DHT22;51319;52.162;5.302;2023-03-16T03:55:07;5.20;83.90
43999;DHT22;51319;52.162;5.302;2023-03-16T03:57:34;5.20;84.30
43999;DHT22;51319;52.162;5.302;2023-03-16T04:00:03;5.20;84.70
43999;DHT22;51319;52.162;5.302;2023-03-16T04:02:33;5.10;84.80
43999;DHT22;51319;52.162;5.302;2023-03-16T04:05:00;5.10;85.20
43999;DHT22;51319;52.162;5.302;2023-03-16T04:07:27;5.10;85.70
43999;DHT22;51319;52.162;5.302;2023-03-16T04:09:54;5.00;86.20
43999;DHT22;51319;52.162;5.302;2023-03-16T04:12:21;5.00;86.60
43999;DHT22;51319;52.162;5.302;2023-03-16T04:14:48;5.00;86.90
43999;DHT22;51319;52.162;5.302;2023-03-16T04:17:15;5.00;87.30
43999;DHT22;51319;52.162;5.302;2023-03-16T04:19:42;5.00;87.60
43999;DHT22;51319;52.162;5.302;2023-03-16T04:22:09;4.90;87.80
43999;DHT22;51319;52.162;5.302;2023-03-16T04:24:36;4.90;88.20
43999;DHT22;51319;52.162;5.302;2023-03-16T04:27:03;4.90;88.40
43999;DHT22;51319;52.162;5.302;2023-03-16T04:29:30;4.90;89.00
43999;DHT22;51319;52.162;5.302;2023-03-16T04:31:57;4.90;89.40
43999;DHT22;51319;52.162;5.302;2023-03-16T04:34:24;4.90;89.60
43999;DHT22;51319;52.162;5.302;2023-03-16T04:36:51;4.90;90.00
43999;DHT22;51319;52.162;5.302;2023-03-16T04:39:19;4.90;90.20
43999;DHT22;51319;52.162;5.302;2023-03-16T04:41:46;4.90;90.20
43999;DHT22;51319;52.162;5.302;2023-03-16T04:44:13;4.90;90.40
43999;DHT22;51319;52.162;5.302;2023-03-16T04:46:40;4.90;90.50
43999;DHT22;51319;52.162;5.302;2023-03-16T04:49:07;4.90;90.50
43999;DHT22;51319;52.162;5.302;2023-03-16T04:51:38;5.00;90.60
43999;DHT22;51319;52.162;5.302;2023-03-16T04:54:06;5.00;90.70
43999;DHT22;51319;52.162;5.302;2023-03-16T04:56:33;5.00;91.00
43999;DHT22;51319;52.162;5.302;2023-03-16T04:59:00;5.00;90.80
43999;DHT22;51319;52.162;5.302;2023-03-16T05:01:27;5.00;90.80
43999;DHT22;51319;52.162;5.302;2023-03-16T05:03:54;5.00;90.90
43999;DHT22;51319;52.162;5.302;2023-03-16T05:06:23;5.10;90.90
43999;DHT22;51319;52.162;5.302;2023-03-16T05:08:50;5.10;90.90
43999;DHT22;51319;52.162;5.302;2023-03-16T05:11:17;5.10;90.90
43999;DHT22;51319;52.162;5.302;2023-03-16T05:13:44;5.10;90.90
43999;DHT22;51319;52.162;5.302;2023-03-16T05:16:10;5.20;90.90
43999;DHT22;51319;52.162;5.302;2023-03-16T05:18:37;5.20;90.90
43999;DHT22;51319;52.162;5.302;2023-03-16T05:21:04;5.20;90.90
43999;DHT22;51319;52.162;5.302;2023-03-16T05:23:31;5.20;90.90
43999;DHT22;51319;52.162;5.302;2023-03-16T05:25:58;5.20;90.90
43999;DHT22;51319;52.162;5.302;2023-03-16T05:28:26;5.20;91.20
43999;DHT22;51319;52.162;5.302;2023-03-16T05:30:53;5.20;91.00
43999;DHT22;51319;52.162;5.302;2023-03-16T05:33:22;5.20;91.00
43999;DHT22;51319;52.162;5.302;2023-03-16T05:35:50;5.20;91.00
43999;DHT22;51319;52.162;5.302;2023-03-16T05:38:17;5.20;91.00
43999;DHT22;51319;52.162;5.302;2023-03-16T05:40:43;5.20;91.00
43999;DHT22;51319;52.162;5.302;2023-03-16T05:43:11;5.20;91.00
43999;DHT22;51319;52.162;5.302;2023-03-16T05:45:39;5.20;91.10
43999;DHT22;51319;52.162;5.302;2023-03-16T05:48:05;5.20;91.20
43999;DHT22;51319;52.162;5.302;2023-03-16T05:50:32;5.20;91.30
43999;DHT22;51319;52.162;5.302;2023-03-16T05:53:00;5.20;91.40
43999;DHT22;51319;52.162;5.302;2023-03-16T05:55:27;5.20;91.50
43999;DHT22;51319;52.162;5.302;2023-03-16T05:57:54;5.20;91.60
43999;DHT22;51319;52.162;5.302;2023-03-16T06:00:21;5.20;91.70
43999;DHT22;51319;52.162;5.302;2023-03-16T06:02:49;5.20;91.90
43999;DHT22;51319;52.162;5.302;2023-03-16T06:05:20;5.10;92.00
43999;DHT22;51319;52.162;5.302;2023-03-16T06:07:47;5.10;92.10
43999;DHT22;51319;52.162;5.302;2023-03-16T06:10:16;5.10;92.20
43999;DHT22;51319;52.162;5.302;2023-03-16T06:12:43;5.10;92.40
43999;DHT22;51319;52.162;5.302;2023-03-16T06:15:11;5.10;92.40
43999;DHT22;51319;52.162;5.302;2023-03-16T06:17:39;5.20;92.60
43999;DHT22;51319;52.162;5.302;2023-03-16T06:20:08;5.10;92.70
43999;DHT22;51319;52.162;5.302;2023-03-16T06:22:38;5.20;92.90
43999;DHT22;51319;52.162;5.302;2023-03-16T06:25:06;5.20;93.00
43999;DHT22;51319;52.162;5.302;2023-03-16T06:27:33;5.20;93.30
43999;DHT22;51319;52.162;5.302;2023-03-16T06:30:00;5.20;93.00
43999;DHT22;51319;52.162;5.302;2023-03-16T06:32:27;5.20;93.10
43999;DHT22;51319;52.162;5.302;2023-03-16T06:34:54;5.20;93.10
43999;DHT22;51319;52.162;5.302;2023-03-16T06:37:21;5.30;93.20
43999;DHT22;51319;52.162;5.302;2023-03-16T06:39:48;5.30;93.20
43999;DHT22;51319;52.162;5.302;2023-03-16T06:42:15;5.30;93.20
43999;DHT22;51319;52.162;5.302;2023-03-16T06:44:43;5.40;93.30
43999;DHT22;51319;52.162;5.302;2023-03-16T06:47:10;5.40;93.30
43999;DHT22;51319;52.162;5.302;2023-03-16T06:49:37;5.40;93.40
43999;DHT22;51319;52.162;5.302;2023-03-16T06:52:04;5.40;93.60
43999;DHT22;51319;52.162;5.302;2023-03-16T06:54:31;5.40;93.80
43999;DHT22;51319;52.162;5.302;2023-03-16T06:57:00;5.40;93.90
43999;DHT22;51319;52.162;5.302;2023-03-16T06:59:27;5.50;94.00
43999;DHT22;51319;52.162;5.302;2023-03-16T07:01:54;5.60;94.20
43999;DHT22;51319;52.162;5.302;2023-03-16T07:04:21;5.60;94.20
43999;DHT22;51319;52.162;5.302;2023-03-16T07:06:48;5.60;94.20
43999;DHT22;51319;52.162;5.302;2023-03-16T07:09:15;5.60;94.20
43999;DHT22;51319;52.162;5.302;2023-03-16T07:11:42;5.60;94.20
43999;DHT22;51319;52.162;5.302;2023-03-16T07:14:08;5.70;94.30
43999;DHT22;51319;52.162;5.302;2023-03-16T07:16:35;5.60;94.40
43999;DHT22;51319;52.162;5.302;2023-03-16T07:19:03;5.70;94.50
43999;DHT22;51319;52.162;5.302;2023-03-16T07:21:29;5.70;94.50
43999;DHT22;51319;52.162;5.302;2023-03-16T07:24:05;5.70;94.50
43999;DHT22;51319;52.162;5.302;2023-03-16T07:26:32;5.70;94.50
43999;DHT22;51319;52.162;5.302;2023-03-16T07:29:00;5.70;94.40
43999;DHT22;51319;52.162;5.302;2023-03-16T07:31:27;5.70;94.40
43999;DHT22;51319;52.162;5.302;2023-03-16T07:33:54;5.70;94.50
43999;DHT22;51319;52.162;5.302;2023-03-16T07:36:21;5.70;94.70
43999;DHT22;51319;52.162;5.302;2023-03-16T07:38:48;5.70;94.80
43999;DHT22;51319;52.162;5.302;2023-03-16T07:41:15;5.70;95.10
43999;DHT22;51319;52.162;5.302;2023-03-16T07:43:42;5.70;95.20
43999;DHT22;51319;52.162;5.302;2023-03-16T07:46:10;5.70;95.30
43999;DHT22;51319;52.162;5.302;2023-03-16T07:48:40;5.70;95.40
43999;DHT22;51319;52.162;5.302;2023-03-16T07:51:11;5.70;95.50
43999;DHT22;51319;52.162;5.302;2023-03-16T07:53:39;5.70;95.60
43999;DHT22;51319;52.162;5.302;2023-03-16T07:56:06;5.70;95.60
43999;DHT22;51319;52.162;5.302;2023-03-16T07:58:33;5.70;95.60
43999;DHT22;51319;52.162;5.302;2023-03-16T08:01:00;5.80;95.70
43999;DHT22;51319;52.162;5.302;2023-03-16T08:03:28;5.80;95.80
43999;DHT22;51319;52.162;5.302;2023-03-16T08:05:55;5.90;96.00
43999;DHT22;51319;52.162;5.302;2023-03-16T08:08:23;6.00;96.10
43999;DHT22;51319;52.162;5.302;2023-03-16T08:10:51;6.20;96.10
43999;DHT22;51319;52.162;5.302;2023-03-16T08:13:19;6.40;96.00
43999;DHT22;51319;52.162;5.302;2023-03-16T08:15:51;6.60;95.90
43999;DHT22;51319;52.162;5.302;2023-03-16T08:18:25;6.80;95.50
43999;DHT22;51319;52.162;5.302;2023-03-16T08:20:52;6.90;95.10
43999;DHT22;51319;52.162;5.302;2023-03-16T08:23:20;7.00;94.70
43999;DHT22;51319;52.162;5.302;2023-03-16T08:25:51;7.10;94.40
43999;DHT22;51319;52.162;5.302;2023-03-16T08:28:18;7.00;93.90
43999;DHT22;51319;52.162;5.302;2023-03-16T08:30:48;7.00;93.60
43999;DHT22;51319;52.162;5.302;2023-03-16T08:33:18;7.00;93.50
43999;DHT22;51319;52.162;5.302;2023-03-16T08:35:48;7.00;93.20
43999;DHT22;51319;52.162;5.302;2023-03-16T08:38:16;6.90;92.90
43999;DHT22;51319;52.162;5.302;2023-03-16T08:40:45;7.00;92.70
43999;DHT22;51319;52.162;5.302;2023-03-16T08:43:15;7.00;92.40
43999;DHT22;51319;52.162;5.302;2023-03-16T08:45:45;7.00;92.10
43999;DHT22;51319;52.162;5.302;2023-03-16T08:48:12;7.00;91.70
43999;DHT22;51319;52.162;5.302;2023-03-16T08:50:40;7.00;91.50
43999;DHT22;51319;52.162;5.302;2023-03-16T08:53:10;7.10;91.40
43999;DHT22;51319;52.162;5.302;2023-03-16T08:55:37;7.10;91.10
43999;DHT22;51319;52.162;5.302;2023-03-16T08:58:06;7.20;90.50
43999;DHT22;51319;52.162;5.302;2023-03-16T09:00:33;7.20;90.20
43999;DHT22;51319;52.162;5.302;2023-03-16T09:03:00;7.30;89.90
43999;DHT22;51319;52.162;5.302;2023-03-16T09:05:28;7.40;89.40
43999;DHT22;51319;52.162;5.302;2023-03-16T09:07:56;7.50;88.20
43999;DHT22;51319;52.162;5.302;2023-03-16T09:10:23;7.50;87.60
43999;DHT22;51319;52.162;5.302;2023-03-16T09:12:51;7.60;87.00
43999;DHT22;51319;52.162;5.302;2023-03-16T09:15:19;7.70;86.40
43999;DHT22;51319;52.162;5.302;2023-03-16T09:17:47;7.70;85.90
43999;DHT22;51319;52.162;5.302;2023-03-16T09:20:16;7.80;85.70
43999;DHT22;51319;52.162;5.302;2023-03-16T09:22:53;7.80;85.00
43999;DHT22;51319;52.162;5.302;2023-03-16T09:25:20;7.70;84.80
43999;DHT22;51319;52.162;5.302;2023-03-16T09:27:47;7.80;84.60
43999;DHT22;51319;52.162;5.302;2023-03-16T09:30:13;7.70;83.90
43999;DHT22;51319;52.162;5.302;2023-03-16T09:32:42;7.70;83.50
43999;DHT22;51319;52.162;5.302;2023-03-16T09:35:17;7.80;83.00
43999;DHT22;51319;52.162;5.302;2023-03-16T09:37:45;7.80;83.00
43999;DHT22;51319;52.162;5.302;2023-03-16T09:40:33;7.90;82.30
43999;DHT22;51319;52.162;5.302;2023-03-16T09:46:20;8.10;81.60
43999;DHT22;51319;52.162;5.302;2023-03-16T09:48:50;8.20;81.00
43999;DHT22;51319;52.162;5.302;2023-03-16T09:53:57;8.80;79.10
43999;DHT22;51319;52.162;5.302;2023-03-16T09:56:38;9.10;77.60
43999;DHT22;51319;52.162;5.302;2023-03-16T09:59:11;9.40;76.90
43999;DHT22;51319;52.162;5.302;2023-03-16T10:04:35;10.90;72.30
43999;DHT22;51319;52.162;5.302;2023-03-16T10:10:05;12.10;66.50
43999;DHT22;51319;52.162;5.302;2023-03-16T10:12:42;13.80;65.20
43999;DHT22;51319;52.162;5.302;2023-03-16T10:15:16;14.30;60.80
43999;DHT22;51319;52.162;5.302;2023-03-16T10:20:26;14.90;58.00
43999;DHT22;51319;52.162;5.302;2023-03-16T10:23:02;15.20;57.20
43999;DHT22;51319;52.162;5.302;2023-03-16T10:25:45;15.30;55.00
43999;DHT22;51319;52.162;5.302;2023-03-16T10:28:18;15.30;55.00
43999;DHT22;51319;52.162;5.302;2023-03-16T10:30:47;15.60;53.70
43999;DHT22;51319;52.162;5.302;2023-03-16T10:36:15;16.70;51.10
43999;DHT22;51319;52.162;5.302;2023-03-16T10:38:56;17.30;49.70
43999;DHT22;51319;52.162;5.302;2023-03-16T10:44:01;17.60;49.00
43999;DHT22;51319;52.162;5.302;2023-03-16T10:46:43;17.80;48.10
43999;DHT22;51319;52.162;5.302;2023-03-16T10:49:26;18.00;47.40
43999;DHT22;51319;52.162;5.302;2023-03-16T10:51:58;18.10;47.70
43999;DHT22;51319;52.162;5.302;2023-03-16T10:54:39;17.90;47.30
43999;DHT22;51319;52.162;5.302;2023-03-16T10:57:19;17.20;47.30
43999;DHT22;51319;52.162;5.302;2023-03-16T10:59:51;17.10;48.50
43999;DHT22;51319;52.162;5.302;2023-03-16T11:02:21;16.90;47.70
43999;DHT22;51319;52.162;5.302;2023-03-16T11:04:49;16.50;48.20
43999;DHT22;51319;52.162;5.302;2023-03-16T11:07:17;16.00;48.90
43999;DHT22;51319;52.162;5.302;2023-03-16T11:09:45;15.40;50.00
43999;DHT22;51319;52.162;5.302;2023-03-16T11:12:30;15.00;50.80
43999;DHT22;51319;52.162;5.302;2023-03-16T11:15:02;14.50;51.60
43999;DHT22;51319;52.162;5.302;2023-03-16T11:17:46;14.20;52.40
43999;DHT22;51319;52.162;5.302;2023-03-16T11:20:19;13.90;53.50
43999;DHT22;51319;52.162;5.302;2023-03-16T11:22:48;13.70;53.80
43999;DHT22;51319;52.162;5.302;2023-03-16T11:28:03;13.40;54.70
43999;DHT22;51319;52.162;5.302;2023-03-16T11:30:43;13.40;55.10
43999;DHT22;51319;52.162;5.302;2023-03-16T11:33:13;13.50;55.50
43999;DHT22;51319;52.162;5.302;2023-03-16T11:36:06;13.40;55.20
43999;DHT22;51319;52.162;5.302;2023-03-16T11:44:42;13.50;54.70
43999;DHT22;51319;52.162;5.302;2023-03-16T11:58:07;14.30;53.70
43999;DHT22;51319;52.162;5.302;2023-03-16T12:00:54;14.60;53.10
43999;DHT22;51319;52.162;5.302;2023-03-16T12:11:53;15.60;51.20
43999;DHT22;51319;52.162;5.302;2023-03-16T12:17:22;17.40;48.80
43999;DHT22;51319;52.162;5.302;2023-03-16T12:22:33;19.40;44.50
43999;DHT22;51319;52.162;5.302;2023-03-16T12:25:18;19.40;43.10
43999;DHT22;51319;52.162;5.302;2023-03-16T12:27:51;18.80;44.00
43999;DHT22;51319;52.162;5.302;2023-03-16T12:30:34;18.50;44.80
43999;DHT22;51319;52.162;5.302;2023-03-16T12:33:11;18.50;45.50
43999;DHT22;51319;52.162;5.302;2023-03-16T12:35:51;18.30;44.80
43999;DHT22;51319;52.162;5.302;2023-03-16T12:44:09;17.10;45.40
43999;DHT22;51319;52.162;5.302;2023-03-16T12:49:19;16.70;45.40
43999;DHT22;51319;52.162;5.302;2023-03-16T12:51:58;16.60;45.50
43999;DHT22;51319;52.162;5.302;2023-03-16T12:54:25;16.60;46.00
43999;DHT22;51319;52.162;5.302;2023-03-16T12:57:03;16.50;45.40
43999;DHT22;51319;52.162;5.302;2023-03-16T12:59:37;16.60;46.10
43999;DHT22;51319;52.162;5.302;2023-03-16T13:02:18;17.20;46.20
43999;DHT22;51319;52.162;5.302;2023-03-16T13:04:48;18.50;44.10
43999;DHT22;51319;52.162;5.302;2023-03-16T13:07:25;19.80;42.10
43999;DHT22;51319;52.162;5.302;2023-03-16T13:12:28;19.60;40.60
43999;DHT22;51319;52.162;5.302;2023-03-16T13:14:57;19.80;40.60
43999;DHT22;51319;52.162;5.302;2023-03-16T13:17:28;20.00;40.30
43999;DHT22;51319;52.162;5.302;2023-03-16T13:20:03;19.90;39.90
43999;DHT22;51319;52.162;5.302;2023-03-16T13:27:45;19.30;39.90
43999;DHT22;51319;52.162;5.302;2023-03-16T13:30:20;18.90;39.80
43999;DHT22;51319;52.162;5.302;2023-03-16T13:32:56;18.60;40.00
43999;DHT22;51319;52.162;5.302;2023-03-16T13:35:27;18.60;40.30
43999;DHT22;51319;52.162;5.302;2023-03-16T13:38:04;18.40;40.30
43999;DHT22;51319;52.162;5.302;2023-03-16T13:40:32;18.70;40.30
43999;DHT22;51319;52.162;5.302;2023-03-16T13:43:00;19.00;40.20
43999;DHT22;51319;52.162;5.302;2023-03-16T13:45:31;19.00;40.20
43999;DHT22;51319;52.162;5.302;2023-03-16T13:47:59;19.10;39.90
43999;DHT22;51319;52.162;5.302;2023-03-16T13:50:33;19.10;39.20
43999;DHT22;51319;52.162;5.302;2023-03-16T13:53:02;18.90;38.50
43999;DHT22;51319;52.162;5.302;2023-03-16T13:55:33;18.50;38.50
43999;DHT22;51319;52.162;5.302;2023-03-16T13:58:01;18.30;39.60
43999;DHT22;51319;52.162;5.302;2023-03-16T14:11:26;17.90;39.40
43999;DHT22;51319;52.162;5.302;2023-03-16T14:13:58;18.30;39.90
43999;DHT22;51319;52.162;5.302;2023-03-16T14:16:28;18.20;39.60
43999;DHT22;51319;52.162;5.302;2023-03-16T14:19:02;18.50;40.30
43999;DHT22;51319;52.162;5.302;2023-03-16T14:21:31;18.60;39.30
43999;DHT22;51319;52.162;5.302;2023-03-16T14:24:02;18.60;38.80
43999;DHT22;51319;52.162;5.302;2023-03-16T14:26:41;18.60;39.10
43999;DHT22;51319;52.162;5.302;2023-03-16T14:29:25;18.80;39.30
43999;DHT22;51319;52.162;5.302;2023-03-16T14:31:53;19.20;38.80
43999;DHT22;51319;52.162;5.302;2023-03-16T14:34:28;19.40;38.30
43999;DHT22;51319;52.162;5.302;2023-03-16T14:37:10;19.40;38.20
43999;DHT22;51319;52.162;5.302;2023-03-16T14:39:38;19.30;37.70
43999;DHT22;51319;52.162;5.302;2023-03-16T14:42:19;19.20;37.80
43999;DHT22;51319;52.162;5.302;2023-03-16T14:44:49;18.90;37.90
43999;DHT22;51319;52.162;5.302;2023-03-16T14:47:28;18.50;38.50
43999;DHT22;51319;52.162;5.302;2023-03-16T14:50:01;18.00;39.00
43999;DHT22;51319;52.162;5.302;2023-03-16T14:52:30;17.70;40.00
43999;DHT22;51319;52.162;5.302;2023-03-16T14:54:59;17.40;40.20
43999;DHT22;51319;52.162;5.302;2023-03-16T14:57:29;17.10;40.80
43999;DHT22;51319;52.162;5.302;2023-03-16T14:59:56;16.90;40.80
43999;DHT22;51319;52.162;5.302;2023-03-16T15:02:27;16.60;41.00
43999;DHT22;51319;52.162;5.302;2023-03-16T15:04:55;16.30;41.40
43999;DHT22;51319;52.162;5.302;2023-03-16T15:07:26;16.10;41.80
43999;DHT22;51319;52.162;5.302;2023-03-16T15:09:57;15.90;42.40
43999;DHT22;51319;52.162;5.302;2023-03-16T15:12:28;15.70;42.60
43999;DHT22;51319;52.162;5.302;2023-03-16T15:14:55;15.70;43.00
43999;DHT22;51319;52.162;5.302;2023-03-16T15:17:40;15.70;43.00
43999;DHT22;51319;52.162;5.302;2023-03-16T15:20:19;15.80;43.30
43999;DHT22;51319;52.162;5.302;2023-03-16T15:22:51;15.80;43.00
43999;DHT22;51319;52.162;5.302;2023-03-16T15:25:41;15.60;43.10
43999;DHT22;51319;52.162;5.302;2023-03-16T15:28:15;15.60;43.10
43999;DHT22;51319;52.162;5.302;2023-03-16T15:30:46;15.50;43.40
43999;DHT22;51319;52.162;5.302;2023-03-16T15:33:15;15.50;43.50
43999;DHT22;51319;52.162;5.302;2023-03-16T15:35:44;15.50;44.00
43999;DHT22;51319;52.162;5.302;2023-03-16T15:38:17;15.60;44.20
43999;DHT22;51319;52.162;5.302;2023-03-16T15:40:45;15.60;44.00
43999;DHT22;51319;52.162;5.302;2023-03-16T15:43:16;15.60;44.00
43999;DHT22;51319;52.162;5.302;2023-03-16T15:45:44;15.50;44.10
43999;DHT22;51319;52.162;5.302;2023-03-16T15:48:12;15.40;44.10
43999;DHT22;51319;52.162;5.302;2023-03-16T15:50:41;15.30;44.30
43999;DHT22;51319;52.162;5.302;2023-03-16T15:53:29;15.20;44.70
43999;DHT22;51319;52.162;5.302;2023-03-16T15:56:13;15.20;44.90
43999;DHT22;51319;52.162;5.302;2023-03-16T15:58:43;15.20;45.50
43999;DHT22;51319;52.162;5.302;2023-03-16T16:01:26;15.30;45.90
43999;DHT22;51319;52.162;5.302;2023-03-16T16:03:53;15.30;45.50
43999;DHT22;51319;52.162;5.302;2023-03-16T16:06:23;15.30;45.80
43999;DHT22;51319;52.162;5.302;2023-03-16T16:08:50;15.20;46.00
43999;DHT22;51319;52.162;5.302;2023-03-16T16:11:24;15.20;45.50
43999;DHT22;51319;52.162;5.302;2023-03-16T16:13:55;15.10;45.00
43999;DHT22;51319;52.162;5.302;2023-03-16T16:16:25;15.00;45.30
43999;DHT22;51319;52.162;5.302;2023-03-16T16:18:53;14.90;45.60
43999;DHT22;51319;52.162;5.302;2023-03-16T16:21:22;14.80;45.10
43999;DHT22;51319;52.162;5.302;2023-03-16T16:23:52;14.80;44.60
43999;DHT22;51319;52.162;5.302;2023-03-16T16:26:28;14.70;44.70
43999;DHT22;51319;52.162;5.302;2023-03-16T16:29:21;14.60;45.00
43999;DHT22;51319;52.162;5.302;2023-03-16T16:31:49;14.50;45.40
43999;DHT22;51319;52.162;5.302;2023-03-16T16:34:20;14.40;45.70
43999;DHT22;51319;52.162;5.302;2023-03-16T16:36:47;14.30;46.00
43999;DHT22;51319;52.162;5.302;2023-03-16T16:39:15;14.30;46.10
43999;DHT22;51319;52.162;5.302;2023-03-16T16:41:43;14.20;46.20
43999;DHT22;51319;52.162;5.302;2023-03-16T16:44:22;14.20;46.20
43999;DHT22;51319;52.162;5.302;2023-03-16T16:46:51;14.10;46.20
43999;DHT22;51319;52.162;5.302;2023-03-16T16:49:26;14.10;46.40
43999;DHT22;51319;52.162;5.302;2023-03-16T16:51:54;14.00;46.30
43999;DHT22;51319;52.162;5.302;2023-03-16T16:54:28;14.00;46.40
43999;DHT22;51319;52.162;5.302;2023-03-16T16:56:57;13.90;46.40
43999;DHT22;51319;52.162;5.302;2023-03-16T16:59:28;13.80;46.70
43999;DHT22;51319;52.162;5.302;2023-03-16T17:01:57;13.70;46.80
43999;DHT22;51319;52.162;5.302;2023-03-16T17:04:27;13.60;47.10
43999;DHT22;51319;52.162;5.302;2023-03-16T17:06:57;13.60;47.30
43999;DHT22;51319;52.162;5.302;2023-03-16T17:09:26;13.50;47.40
43999;DHT22;51319;52.162;5.302;2023-03-16T17:11:53;13.40;47.60
43999;DHT22;51319;52.162;5.302;2023-03-16T17:14:25;13.30;47.50
43999;DHT22;51319;52.162;5.302;2023-03-16T17:17:00;13.20;47.70
43999;DHT22;51319;52.162;5.302;2023-03-16T17:19:30;13.10;48.00